Etusivu
METAR-TAF:

METAR-TAF

Lentoasemat :

Indianapolis, Indiana, Yhdysvallat

Leveyspiiri: 39-43-30N, Pituuspiiri: 086-16-55W, korkeus merenpinnasta: 243 m

Tämänhetkinen sää

Tämä raportti tehtiin 42 minuuttia sitten, kello 07.54 UTC
Tuuli 7 kn etelästä/kaakosta
Lämpötila -7°C
Kosteus 86%
Ilmanpaine 1029 hPa
Näkyvyys: 16.1 km
Hajanaisia pilviä 25000 ft:n korkeudessa

METAR: KIND 220754Z 15007KT 10SM SCT250 M07/M09 A3040 RMK AO2 SLP305 T10671089

Aika: 03:36 (08:36 UTC)

Sääennuste

Tämä raportti tehtiin 14 minuuttia sitten, kello 08.22 UTC
Ennuste voimassa 22. päivästä klo 08 UTC - 23. päivään klo 12 UTC
Tuuli 7 kn etelästä/kaakosta
Näkyvyys: 10 km
Muutamia pilviä 25000 ft:n korkeudessa
From 23. päivästä klo 0600 UTC
Tuuli 5 kn etelästä
Näkyvyys: 10 km
Pilvistä 12000 ft:n korkeudessa

TAF: KIND 220822Z 2208/2312 16007KT P6SM FEW250 FM230600 17005KT P6SM OVC120

Säähavainnot ja -ennusteet yli 4000 lentoasemalta (METAR- ja TAF-raportit).

Käytössä olevat sääasemat on merkitty karttaan keltaisilla ja punaisilla pisteillä.

Aseta hiiri pisteen päälle nähdäksesi sääaseman nimen.

Klikkaa sitten nähdäksesi säähavainnot ja -ennusteet.

Kartan vaihtaminen: klikkaa mustalla rastilla varustettuja vihreitä pisteitä, niin voit zoomata sisään; viivalla varustettua vihreää pistettä, niin voit zoomata ulos tai vihreitä nuolia, niin pääset viereisille kartoille.


METAR-TAF: